createdAt,value
2023-04-17T00:00:43.584Z,13.18
2023-04-17T00:03:47.549Z,13.28
2023-04-17T00:06:53.888Z,13.19
2023-04-17T00:09:57.196Z,13.22
2023-04-17T00:12:59.893Z,13.17
2023-04-17T00:16:02.855Z,13.17
2023-04-17T00:19:06.330Z,12.98
2023-04-17T00:22:09.108Z,12.98
2023-04-17T00:25:14.767Z,12.92
2023-04-17T00:28:17.384Z,12.94
2023-04-17T00:31:20.255Z,12.88
2023-04-17T00:34:22.874Z,12.83
2023-04-17T00:37:25.540Z,12.83
2023-04-17T00:40:28.243Z,12.77
2023-04-17T00:43:30.975Z,12.71
2023-04-17T00:46:33.755Z,12.77
2023-04-17T00:49:36.864Z,12.82
2023-04-17T00:52:39.755Z,12.66
2023-04-17T00:55:44.774Z,12.63
2023-04-17T00:58:48.819Z,12.33
2023-04-17T01:01:51.554Z,12.48
2023-04-17T01:04:54.191Z,12.59
2023-04-17T01:07:59.646Z,12.55
2023-04-17T01:11:02.463Z,12.56
2023-04-17T01:14:05.299Z,12.55
2023-04-17T01:17:08.053Z,12.59
2023-04-17T01:20:12.021Z,12.61
2023-04-17T01:23:15.789Z,12.69
2023-04-17T01:26:28.295Z,12.72
2023-04-17T01:29:31.317Z,12.66
2023-04-17T01:32:34.282Z,12.55
2023-04-17T01:35:36.912Z,12.61
2023-04-17T01:38:40.568Z,12.54
2023-04-17T01:41:43.494Z,12.53
2023-04-17T01:44:46.379Z,12.59
2023-04-17T01:47:49.038Z,12.69
2023-04-17T01:50:52.434Z,12.56
2023-04-17T01:53:55.913Z,12.60
2023-04-17T01:56:58.462Z,12.65
2023-04-17T02:00:01.686Z,12.66
2023-04-17T02:03:15.843Z,12.67
2023-04-17T02:06:19.472Z,12.69
2023-04-17T02:09:22.580Z,12.76
2023-04-17T02:12:25.371Z,12.81
2023-04-17T02:15:28.865Z,12.72
2023-04-17T02:18:32.444Z,12.83
2023-04-17T02:21:37.051Z,12.85
2023-04-17T02:24:41.121Z,12.78
2023-04-17T02:27:44.424Z,12.82
2023-04-17T02:30:46.940Z,12.84
2023-04-17T02:33:50.889Z,12.80
2023-04-17T02:36:53.352Z,12.76
2023-04-17T02:39:59.434Z,12.69
2023-04-17T02:43:02.871Z,12.70
2023-04-17T02:46:06.471Z,12.77
2023-04-17T02:49:10.607Z,12.73
2023-04-17T02:52:15.576Z,12.73
2023-04-17T02:55:19.164Z,12.70
2023-04-17T02:58:21.882Z,12.69
2023-04-17T03:01:26.415Z,12.71
2023-04-17T03:04:29.230Z,12.59
2023-04-17T03:07:31.777Z,12.65
2023-04-17T03:10:35.442Z,12.58
2023-04-17T03:13:38.444Z,12.62
2023-04-17T03:16:40.978Z,12.61
2023-04-17T03:19:44.462Z,12.69
2023-04-17T03:22:48.014Z,12.59
2023-04-17T03:25:51.109Z,12.61
2023-04-17T03:28:54.489Z,12.61
2023-04-17T03:31:58.552Z,12.66
2023-04-17T03:35:02.043Z,12.70
2023-04-17T03:38:04.743Z,12.66
2023-04-17T03:41:07.295Z,12.63
2023-04-17T03:44:10.624Z,12.66
2023-04-17T03:47:13.158Z,12.66
2023-04-17T03:50:17.613Z,12.75
2023-04-17T03:53:31.039Z,12.73
2023-04-17T03:56:37.620Z,12.81
2023-04-17T03:59:41.152Z,12.79
2023-04-17T04:02:44.038Z,12.82
2023-04-17T04:05:47.899Z,12.81
2023-04-17T04:08:50.734Z,12.79
2023-04-17T04:11:54.060Z,12.86
2023-04-17T04:14:57.998Z,12.94
2023-04-17T04:18:03.185Z,12.96
2023-04-17T04:21:06.986Z,13.00
2023-04-17T04:24:14.474Z,13.12
2023-04-17T04:27:22.734Z,13.16
2023-04-17T04:30:30.564Z,13.22
2023-04-17T04:33:45.457Z,13.29
2023-04-17T04:36:51.979Z,13.33
2023-04-17T04:40:11.083Z,13.45
2023-04-17T04:43:17.708Z,13.49
2023-04-17T04:46:22.889Z,13.47
2023-04-17T04:49:26.569Z,13.48
2023-04-17T04:52:29.167Z,13.43
2023-04-17T04:55:36.160Z,13.59
2023-04-17T04:58:40.030Z,13.68
2023-04-17T05:01:44.957Z,13.71
2023-04-17T05:04:49.629Z,13.68
2023-04-17T05:07:55.865Z,13.69
2023-04-17T05:11:02.753Z,13.80
2023-04-17T05:14:05.609Z,13.88
2023-04-17T05:17:12.049Z,13.95
2023-04-17T05:20:19.026Z,14.08
2023-04-17T05:23:30.704Z,13.99
2023-04-17T05:26:33.719Z,14.03
2023-04-17T05:29:37.644Z,13.99
2023-04-17T05:32:40.481Z,13.94
2023-04-17T05:36:02.943Z,13.91
2023-04-17T05:39:10.610Z,13.91
2023-04-17T05:42:13.617Z,13.78
2023-04-17T05:45:21.096Z,13.95
2023-04-17T05:48:25.359Z,14.10
2023-04-17T05:51:28.920Z,14.20
2023-04-17T05:54:31.636Z,14.33
2023-04-17T05:57:43.148Z,14.52
2023-04-17T06:00:46.917Z,14.55
2023-04-17T06:03:58.823Z,14.65
2023-04-17T06:07:23.802Z,14.71
2023-04-17T06:11:37.445Z,14.89
2023-04-17T06:14:40.611Z,14.97
2023-04-17T06:17:45.315Z,14.87
2023-04-17T06:20:48.105Z,14.98
2023-04-17T06:23:52.124Z,14.96
2023-04-17T06:26:55.357Z,14.83
2023-04-17T06:30:00.898Z,15.14
2023-04-17T06:33:06.810Z,15.17
2023-04-17T06:36:10.596Z,15.22
2023-04-17T06:39:22.984Z,15.21
2023-04-17T06:42:26.472Z,15.53
2023-04-17T06:45:37.093Z,15.73
2023-04-17T06:48:42.272Z,15.76
2023-04-17T06:51:47.671Z,15.83
2023-04-17T06:55:04.308Z,15.76
2023-04-17T06:58:14.892Z,15.71
2023-04-17T07:01:22.258Z,15.63
2023-04-17T07:04:25.454Z,15.67
2023-04-17T07:07:30.768Z,15.83
2023-04-17T07:10:35.412Z,16.02
2023-04-17T07:13:38.676Z,16.21
2023-04-17T07:16:41.823Z,16.02
2023-04-17T07:19:45.075Z,16.13
2023-04-17T07:22:49.990Z,16.10
2023-04-17T07:25:52.990Z,16.14
2023-04-17T07:28:56.091Z,16.18
2023-04-17T07:32:04.621Z,16.37
2023-04-17T07:35:16.140Z,16.22
2023-04-17T07:38:23.824Z,15.92
2023-04-17T07:41:27.457Z,16.05
2023-04-17T07:44:31.350Z,16.06
2023-04-17T07:48:04.868Z,16.14
2023-04-17T07:51:23.788Z,16.28
2023-04-17T07:54:27.322Z,16.43
2023-04-17T07:57:31.082Z,16.47
2023-04-17T08:00:35.095Z,16.64
2023-04-17T08:03:41.645Z,16.65
2023-04-17T08:06:45.601Z,16.63
2023-04-17T08:09:51.232Z,17.03
2023-04-17T08:12:55.035Z,17.03
2023-04-17T08:15:59.691Z,17.02
2023-04-17T08:19:03.396Z,17.12
2023-04-17T08:22:07.441Z,17.15
2023-04-17T08:25:11.526Z,17.23
2023-04-17T08:28:14.448Z,17.46
2023-04-17T08:31:17.164Z,17.68
2023-04-17T08:34:19.892Z,17.76
2023-04-17T08:37:22.623Z,17.93
2023-04-17T08:40:29.517Z,18.21
2023-04-17T08:43:47.553Z,18.57
2023-04-17T08:47:06.918Z,18.51
2023-04-17T08:50:15.907Z,18.25
2023-04-17T08:53:20.744Z,18.38
2023-04-17T08:56:28.791Z,18.56
2023-04-17T08:59:33.833Z,18.68
2023-04-17T09:02:54.925Z,18.99
2023-04-17T09:05:58.716Z,18.70
2023-04-17T09:09:02.690Z,19.42
2023-04-17T09:12:26.120Z,19.51
2023-04-17T09:15:43.423Z,19.45
2023-04-17T09:19:07.781Z,19.16
2023-04-17T09:22:22.466Z,19.30
2023-04-17T09:25:26.722Z,19.08
2023-04-17T09:28:40.716Z,19.13
2023-04-17T09:36:33.304Z,18.90
2023-04-17T09:40:07.773Z,19.20
2023-04-17T09:43:28.695Z,18.94
2023-04-17T09:47:14.218Z,19.15
2023-04-17T09:50:25.028Z,19.23
2023-04-17T09:53:28.819Z,19.30
2023-04-17T09:56:42.602Z,18.90
2023-04-17T09:59:50.545Z,19.16
2023-04-17T10:02:56.576Z,19.23
2023-04-17T10:06:04.238Z,19.38
2023-04-17T10:09:08.300Z,19.23
2023-04-17T10:12:17.081Z,19.54
2023-04-17T10:15:24.152Z,19.39
2023-04-17T10:18:32.568Z,19.40
2023-04-17T10:21:40.343Z,19.15
2023-04-17T10:24:47.644Z,18.83
2023-04-17T10:27:54.505Z,19.43
2023-04-17T10:31:00.139Z,19.94
2023-04-17T10:34:02.840Z,20.03
2023-04-17T10:37:06.821Z,20.38
2023-04-17T10:40:12.156Z,20.09
2023-04-17T10:43:17.993Z,20.33
2023-04-17T10:46:26.736Z,20.08
2023-04-17T10:49:48.406Z,19.98
2023-04-17T10:52:53.115Z,20.04
2023-04-17T10:55:57.648Z,20.68
2023-04-17T10:59:04.447Z,20.19
2023-04-17T11:02:08.381Z,20.33
2023-04-17T11:05:12.117Z,20.16
2023-04-17T11:08:15.705Z,20.27
2023-04-17T11:11:26.934Z,20.35
2023-04-17T11:14:42.863Z,20.38
2023-04-17T11:17:48.639Z,20.84
2023-04-17T11:20:52.676Z,20.56
2023-04-17T11:23:55.258Z,21.10
2023-04-17T11:27:00.927Z,21.19
2023-04-17T11:30:04.043Z,21.67
2023-04-17T11:33:09.039Z,21.49
2023-04-17T11:36:11.891Z,21.87
2023-04-17T11:39:16.191Z,22.27
2023-04-17T11:42:28.436Z,22.88
2023-04-17T11:45:33.084Z,23.15
2023-04-17T11:48:35.787Z,22.67
2023-04-17T11:51:39.116Z,22.66
2023-04-17T11:54:42.759Z,22.45
2023-04-17T11:57:45.664Z,22.32
2023-04-17T12:01:05.070Z,22.18
2023-04-17T12:04:26.452Z,22.08
2023-04-17T12:07:44.653Z,20.94
2023-04-17T12:10:52.126Z,21.18
2023-04-17T12:13:56.425Z,21.04
2023-04-17T12:16:59.955Z,20.81
2023-04-17T12:20:04.183Z,21.31
2023-04-17T12:23:07.112Z,21.50
2023-04-17T12:26:09.871Z,20.58
2023-04-17T12:29:12.586Z,20.14
2023-04-17T12:32:16.697Z,20.60
2023-04-17T12:35:20.815Z,20.40
2023-04-17T12:38:23.729Z,21.01
2023-04-17T12:41:26.921Z,22.00
2023-04-17T12:44:34.410Z,22.32
2023-04-17T12:47:38.206Z,22.24
2023-04-17T12:50:44.393Z,21.38
2023-04-17T12:53:47.884Z,21.57
2023-04-17T12:57:02.328Z,22.25
2023-04-17T13:00:20.408Z,21.62
2023-04-17T13:03:28.456Z,21.98
2023-04-17T13:06:32.510Z,22.30
2023-04-17T13:09:35.882Z,21.62
2023-04-17T13:12:42.204Z,21.44
2023-04-17T13:15:48.168Z,21.06
2023-04-17T13:18:51.036Z,20.82
2023-04-17T13:21:53.643Z,19.92
2023-04-17T13:24:57.196Z,19.59
2023-04-17T13:28:00.212Z,19.31
2023-04-17T13:31:06.026Z,19.41
2023-04-17T13:34:11.458Z,19.40
2023-04-17T13:37:15.360Z,18.89
2023-04-17T13:40:21.109Z,18.40
2023-04-17T13:43:24.265Z,18.37
2023-04-17T13:46:27.037Z,18.22
2023-04-17T13:49:29.961Z,18.29
2023-04-17T13:52:33.187Z,18.39
2023-04-17T13:55:36.064Z,18.40
2023-04-17T13:58:45.495Z,18.48
2023-04-17T14:01:49.287Z,18.74
2023-04-17T14:04:52.349Z,18.85
2023-04-17T14:07:55.873Z,18.77
2023-04-17T14:10:58.496Z,19.21
2023-04-17T14:14:01.538Z,19.01
2023-04-17T14:17:04.268Z,19.30
2023-04-17T14:20:08.671Z,19.57
2023-04-17T14:23:11.424Z,19.68
2023-04-17T14:26:14.137Z,19.83
2023-04-17T14:29:17.062Z,19.83
2023-04-17T14:32:30.327Z,19.66
2023-04-17T14:35:34.085Z,19.73
2023-04-17T14:38:46.783Z,19.59
2023-04-17T14:41:52.458Z,19.53
2023-04-17T14:44:55.262Z,19.75
2023-04-17T14:47:58.149Z,19.84
2023-04-17T14:51:01.687Z,19.73
2023-04-17T14:54:06.530Z,19.89
2023-04-17T14:57:10.070Z,19.88
2023-04-17T15:00:13.353Z,19.93
2023-04-17T15:03:16.130Z,19.68
2023-04-17T15:06:20.059Z,19.62
2023-04-17T15:09:22.737Z,19.56
2023-04-17T15:12:25.363Z,19.29
2023-04-17T15:15:28.560Z,19.50
2023-04-17T15:18:31.377Z,19.38
2023-04-17T15:21:34.233Z,19.23
2023-04-17T15:24:36.898Z,19.38
2023-04-17T15:27:39.621Z,19.35
2023-04-17T15:30:43.152Z,19.24
2023-04-17T15:33:47.437Z,18.90
2023-04-17T15:36:50.942Z,18.79
2023-04-17T15:39:53.608Z,18.53
2023-04-17T15:42:56.424Z,18.54
2023-04-17T15:46:00.141Z,18.38
2023-04-17T15:49:08.762Z,18.48
2023-04-17T15:52:12.876Z,18.42
2023-04-17T15:55:16.106Z,18.45
2023-04-17T15:58:18.808Z,18.35
2023-04-17T16:01:21.492Z,18.50
2023-04-17T16:04:24.693Z,18.48
2023-04-17T16:07:27.501Z,18.45
2023-04-17T16:10:30.412Z,18.45
2023-04-17T16:13:32.959Z,18.36
2023-04-17T16:16:35.707Z,18.41
2023-04-17T16:19:38.982Z,18.35
2023-04-17T16:22:41.670Z,18.14
2023-04-17T16:25:44.234Z,17.91
2023-04-17T16:28:46.881Z,18.12
2023-04-17T16:31:49.846Z,18.04
2023-04-17T16:34:52.773Z,18.02
2023-04-17T16:37:55.446Z,18.05
2023-04-17T16:40:59.068Z,18.10
2023-04-17T16:44:02.436Z,18.10
2023-04-17T16:47:13.248Z,17.91
2023-04-17T16:50:16.677Z,18.06
2023-04-17T16:53:21.321Z,17.92
2023-04-17T16:56:24.482Z,17.83
2023-04-17T16:59:27.119Z,17.76
2023-04-17T17:02:29.802Z,17.80
2023-04-17T17:05:33.066Z,17.64
2023-04-17T17:08:36.530Z,17.35
2023-04-17T17:11:41.963Z,17.58
2023-04-17T17:14:44.972Z,17.54
2023-04-17T17:17:48.591Z,17.48
2023-04-17T17:20:54.137Z,17.40
2023-04-17T17:23:57.572Z,17.22
2023-04-17T17:27:00.676Z,17.25
2023-04-17T17:30:04.230Z,17.09
2023-04-17T17:33:06.927Z,17.02
2023-04-17T17:36:11.981Z,16.95
2023-04-17T17:39:14.771Z,16.92
2023-04-17T17:42:17.442Z,16.96
2023-04-17T17:45:20.652Z,16.79
2023-04-17T17:48:24.010Z,16.84
2023-04-17T17:51:27.543Z,16.83
2023-04-17T17:54:34.542Z,16.84
2023-04-17T17:57:48.275Z,16.78
2023-04-17T18:00:51.738Z,16.74
2023-04-17T18:03:55.260Z,16.74
2023-04-17T18:06:58.636Z,16.81
2023-04-17T18:10:02.141Z,16.78
2023-04-17T18:13:05.774Z,16.67
2023-04-17T18:16:08.506Z,16.73
2023-04-17T18:19:12.660Z,16.60
2023-04-17T18:22:15.244Z,16.63
2023-04-17T18:25:17.995Z,16.68
2023-04-17T18:28:20.814Z,16.66
2023-04-17T18:31:25.243Z,16.60
2023-04-17T18:34:27.865Z,16.47
2023-04-17T18:37:30.540Z,16.44
2023-04-17T18:40:33.296Z,16.38
2023-04-17T18:43:35.918Z,16.28
2023-04-17T18:46:38.523Z,16.26
2023-04-17T18:49:41.662Z,16.22
2023-04-17T18:52:48.791Z,16.20
2023-04-17T18:55:53.636Z,16.15
2023-04-17T18:58:56.292Z,16.16
2023-04-17T19:01:59.059Z,16.09
2023-04-17T19:05:01.846Z,15.99
2023-04-17T19:08:05.277Z,15.94
2023-04-17T19:11:08.052Z,15.84
2023-04-17T19:14:10.895Z,15.78
2023-04-17T19:17:13.689Z,15.81
2023-04-17T19:20:16.862Z,15.79
2023-04-17T19:23:20.213Z,15.83
2023-04-17T19:26:23.743Z,15.81
2023-04-17T19:29:27.150Z,15.82
2023-04-17T19:32:31.656Z,15.77
2023-04-17T19:35:35.234Z,15.82
2023-04-17T19:38:38.606Z,15.84
2023-04-17T19:41:42.787Z,15.82
2023-04-17T19:44:46.294Z,15.74
2023-04-17T19:47:54.976Z,15.75
2023-04-17T19:51:00.063Z,15.70
2023-04-17T19:54:02.708Z,15.65
2023-04-17T19:57:05.323Z,15.66
2023-04-17T20:00:08.757Z,15.63
2023-04-17T20:03:15.243Z,15.65
2023-04-17T20:06:19.627Z,15.66
2023-04-17T20:09:22.321Z,15.67
2023-04-17T20:12:25.547Z,15.59
2023-04-17T20:15:28.188Z,15.56
2023-04-17T20:18:31.472Z,15.57
2023-04-17T20:21:34.337Z,15.62
2023-04-17T20:24:37.740Z,15.64
2023-04-17T20:27:40.640Z,15.57
2023-04-17T20:30:43.213Z,15.62
2023-04-17T20:33:46.875Z,15.64
2023-04-17T20:36:49.453Z,15.67
2023-04-17T20:39:52.863Z,15.56
2023-04-17T20:42:55.520Z,15.61
2023-04-17T20:45:59.277Z,15.55
2023-04-17T20:49:01.871Z,15.55
2023-04-17T20:52:04.717Z,15.44
2023-04-17T20:55:08.800Z,15.50
2023-04-17T20:58:11.463Z,15.38
2023-04-17T21:01:15.027Z,15.41
2023-04-17T21:04:18.386Z,15.48
2023-04-17T21:07:21.059Z,15.59
2023-04-17T21:10:24.072Z,15.48
2023-04-17T21:13:26.899Z,15.43
2023-04-17T21:16:29.740Z,15.55
2023-04-17T21:19:36.013Z,15.44
2023-04-17T21:22:38.962Z,15.26
2023-04-17T21:25:42.353Z,15.20
2023-04-17T21:28:45.480Z,15.27
2023-04-17T21:31:48.264Z,15.16
2023-04-17T21:34:50.770Z,15.01
2023-04-17T21:37:53.485Z,15.00
2023-04-17T21:40:58.278Z,14.95
2023-04-17T21:44:02.641Z,15.01
2023-04-17T21:47:05.337Z,14.89
2023-04-17T21:50:08.782Z,14.99
2023-04-17T21:53:12.345Z,15.11
2023-04-17T21:56:15.031Z,15.03
2023-04-17T21:59:18.226Z,14.98
2023-04-17T22:02:21.047Z,14.95
2023-04-17T22:05:23.752Z,14.85
2023-04-17T22:08:26.354Z,14.86
2023-04-17T22:11:29.042Z,14.83
2023-04-17T22:14:31.535Z,14.89
2023-04-17T22:17:34.221Z,14.79
2023-04-17T22:20:37.065Z,14.89
2023-04-17T22:23:39.788Z,14.84
2023-04-17T22:26:42.462Z,14.93
2023-04-17T22:29:45.274Z,14.78
2023-04-17T22:32:47.851Z,14.79
2023-04-17T22:35:51.174Z,14.80
2023-04-17T22:38:53.823Z,14.67
2023-04-17T22:41:57.934Z,14.70
2023-04-17T22:45:01.419Z,14.72
2023-04-17T22:48:04.379Z,14.70
2023-04-17T22:51:09.729Z,14.60
2023-04-17T22:54:22.281Z,14.54
2023-04-17T22:57:25.896Z,14.53
2023-04-17T23:00:30.011Z,14.54
2023-04-17T23:03:32.689Z,14.54
2023-04-17T23:06:35.302Z,14.53
2023-04-17T23:09:37.981Z,14.46
2023-04-17T23:12:40.940Z,14.51
2023-04-17T23:15:43.643Z,14.50
2023-04-17T23:18:46.589Z,14.59
2023-04-17T23:21:49.319Z,14.53
2023-04-17T23:24:53.421Z,14.41
2023-04-17T23:27:56.232Z,14.40
2023-04-17T23:31:04.532Z,14.43
2023-04-17T23:34:07.995Z,14.31
2023-04-17T23:37:11.460Z,14.25
2023-04-17T23:40:14.224Z,14.20
2023-04-17T23:43:16.976Z,14.06
2023-04-17T23:46:20.052Z,14.20
2023-04-17T23:49:22.827Z,14.03
2023-04-17T23:52:26.337Z,13.98
2023-04-17T23:55:29.293Z,13.90
2023-04-17T23:58:32.950Z,13.78
